createdAt,value
2019-01-05T00:00:23.286Z,63.20
2019-01-05T00:02:28.604Z,60.63
2019-01-05T00:04:50.450Z,58.70
2019-01-05T00:06:56.448Z,60.83
2019-01-05T00:09:18.620Z,63.80
2019-01-05T00:11:27.290Z,53.87
2019-01-05T00:13:49.315Z,58.37
2019-01-05T00:15:54.732Z,58.23
2019-01-05T00:18:09.962Z,57.10
2019-01-05T00:20:18.127Z,59.70
2019-01-05T00:22:27.006Z,58.43
2019-01-05T00:24:41.927Z,62.57
2019-01-05T00:26:53.634Z,59.07
2019-01-05T00:28:59.563Z,62.10
2019-01-05T00:31:18.043Z,56.63
2019-01-05T00:33:28.438Z,64.67
2019-01-05T00:35:48.991Z,61.03
2019-01-05T00:38:00.621Z,60.83
2019-01-05T00:40:09.538Z,59.67
2019-01-05T00:42:21.582Z,62.03
2019-01-05T00:44:27.361Z,56.67
2019-01-05T00:46:49.703Z,61.53
2019-01-05T00:48:58.786Z,68.50
2019-01-05T00:51:09.327Z,60.57
2019-01-05T00:53:15.834Z,61.70
2019-01-05T00:55:24.673Z,56.97
2019-01-05T00:57:48.171Z,59.50
2019-01-05T00:59:59.600Z,67.87
2019-01-05T01:02:22.024Z,60.03
2019-01-05T01:04:32.432Z,58.93
2019-01-05T01:06:39.037Z,66.10
2019-01-05T01:08:53.362Z,68.03
2019-01-05T01:11:14.139Z,67.30
2019-01-05T01:13:38.591Z,65.00
2019-01-05T01:15:44.507Z,67.13
2019-01-05T01:18:06.126Z,61.17
2019-01-05T01:20:17.776Z,65.47
2019-01-05T01:22:40.039Z,73.60
2019-01-05T01:24:45.602Z,68.53
2019-01-05T01:26:51.209Z,60.13
2019-01-05T01:29:13.721Z,67.03
2019-01-05T01:31:25.078Z,63.90
2019-01-05T01:33:49.899Z,64.43
2019-01-05T01:35:58.129Z,64.03
2019-01-05T01:38:24.256Z,65.63
2019-01-05T01:40:29.664Z,62.47
2019-01-05T01:42:37.541Z,73.53
2019-01-05T01:44:52.420Z,63.87
2019-01-05T01:47:16.755Z,64.10
2019-01-05T01:49:26.310Z,65.70
2019-01-05T01:51:40.821Z,63.17
2019-01-05T01:54:04.256Z,65.23
2019-01-05T01:56:28.796Z,70.03
2019-01-05T01:58:42.693Z,68.73
2019-01-05T02:00:50.922Z,63.83
2019-01-05T02:03:12.831Z,71.23
2019-01-05T02:05:21.776Z,70.50
2019-01-05T02:07:38.798Z,63.03
2019-01-05T02:10:02.030Z,65.50
2019-01-05T02:12:10.369Z,65.63
2019-01-05T02:14:28.143Z,72.03
2019-01-05T02:16:52.092Z,67.33
2019-01-05T02:19:00.678Z,69.67
2019-01-05T02:21:23.922Z,76.03
2019-01-05T02:23:38.449Z,68.23
2019-01-05T02:26:15.148Z,66.40
2019-01-05T02:28:26.134Z,72.30
2019-01-05T02:30:57.191Z,71.73
2019-01-05T02:33:17.361Z,70.40
2019-01-05T02:35:54.535Z,69.03
2019-01-05T02:38:20.568Z,80.00
2019-01-05T02:40:34.459Z,68.10
2019-01-05T02:43:32.540Z,72.77
2019-01-05T02:45:43.496Z,68.30
2019-01-05T02:48:19.976Z,75.33
2019-01-05T02:50:43.096Z,69.00
2019-01-05T02:53:09.057Z,72.53
2019-01-05T02:55:20.104Z,72.30
2019-01-05T02:57:56.238Z,70.97
2019-01-05T03:00:19.140Z,64.33
2019-01-05T03:02:39.200Z,70.23
2019-01-05T03:05:20.347Z,64.90
2019-01-05T03:08:01.506Z,76.37
2019-01-05T03:10:21.756Z,73.10
2019-01-05T03:13:02.393Z,66.97
2019-01-05T03:15:34.521Z,69.07
2019-01-05T03:17:54.878Z,66.30
2019-01-05T03:20:46.986Z,69.20
2019-01-05T03:23:16.409Z,77.50
2019-01-05T03:26:14.411Z,76.70
2019-01-05T03:28:40.168Z,78.17
2019-01-05T03:31:03.307Z,73.83
2019-01-05T03:33:50.888Z,65.20
2019-01-05T03:36:37.989Z,66.07
2019-01-05T03:39:10.641Z,73.60
2019-01-05T03:41:56.818Z,75.63
2019-01-05T03:44:35.121Z,74.67
2019-01-05T03:47:14.817Z,78.53
2019-01-05T03:49:45.791Z,70.63
2019-01-05T03:52:20.610Z,82.20
2019-01-05T03:54:34.285Z,78.40
2019-01-05T03:56:54.535Z,68.03
2019-01-05T03:59:11.781Z,70.40
2019-01-05T04:01:28.779Z,73.90
2019-01-05T04:03:56.274Z,70.43
2019-01-05T04:06:22.858Z,74.37
2019-01-05T04:08:36.535Z,68.77
2019-01-05T04:10:56.648Z,62.20
2019-01-05T04:13:42.656Z,79.87
2019-01-05T04:16:27.450Z,70.23
2019-01-05T04:18:41.762Z,74.27
2019-01-05T04:21:14.357Z,73.60
2019-01-05T04:24:03.607Z,67.37
2019-01-05T04:26:40.283Z,70.07
2019-01-05T04:29:09.919Z,69.70
2019-01-05T04:31:37.621Z,69.23
2019-01-05T04:33:54.723Z,67.57
2019-01-05T04:36:29.833Z,67.27
2019-01-05T04:39:12.026Z,61.73
2019-01-05T04:41:40.742Z,69.83
2019-01-05T04:44:03.945Z,58.33
2019-01-05T04:46:42.049Z,65.50
2019-01-05T04:49:14.354Z,71.97
2019-01-05T04:51:45.294Z,60.57
2019-01-05T04:54:26.425Z,64.53
2019-01-05T04:56:56.484Z,54.43
2019-01-05T04:59:28.870Z,58.87
2019-01-05T05:01:56.740Z,60.17
2019-01-05T05:04:33.536Z,53.23
2019-01-05T05:07:01.128Z,61.60
2019-01-05T05:09:34.893Z,49.40
2019-01-05T05:12:04.274Z,51.40
2019-01-05T05:14:39.723Z,48.70
2019-01-05T05:17:11.465Z,46.70
2019-01-05T05:19:49.387Z,47.37
2019-01-05T05:21:59.001Z,48.97
2019-01-05T05:24:34.438Z,50.27
2019-01-05T05:26:51.734Z,51.67
2019-01-05T05:29:08.155Z,50.63
2019-01-05T05:31:54.341Z,50.93
2019-01-05T05:34:29.283Z,49.13
2019-01-05T05:37:18.316Z,51.87
2019-01-05T05:39:58.591Z,45.33
2019-01-05T05:42:58.230Z,50.77
2019-01-05T05:45:51.882Z,47.73
2019-01-05T05:48:22.772Z,49.40
2019-01-05T05:50:48.930Z,51.03
2019-01-05T05:53:18.325Z,55.33
2019-01-05T05:55:56.724Z,44.37
2019-01-05T05:58:10.769Z,38.23
2019-01-05T06:00:43.007Z,42.97
2019-01-05T06:03:30.685Z,39.23
2019-01-05T06:05:47.955Z,46.70
2019-01-05T06:08:22.757Z,40.90
2019-01-05T06:11:06.168Z,41.57
2019-01-05T06:13:48.949Z,39.77
2019-01-05T06:16:25.596Z,40.70
2019-01-05T06:19:10.051Z,39.50
2019-01-05T06:21:33.276Z,47.33
2019-01-05T06:24:22.288Z,38.87
2019-01-05T06:26:49.975Z,30.87
2019-01-05T06:29:13.133Z,46.13
2019-01-05T06:31:29.656Z,43.00
2019-01-05T06:33:40.828Z,38.80
2019-01-05T06:36:05.569Z,33.10
2019-01-05T06:38:29.545Z,38.90
2019-01-05T06:41:04.315Z,43.03
2019-01-05T06:43:36.689Z,36.67
2019-01-05T06:46:20.036Z,30.67
2019-01-05T06:48:37.047Z,32.20
2019-01-05T06:51:04.971Z,33.00
2019-01-05T06:53:28.217Z,30.90
2019-01-05T06:56:05.037Z,35.20
2019-01-05T06:58:38.920Z,31.60
2019-01-05T07:01:25.286Z,31.93
2019-01-05T07:04:06.338Z,33.57
2019-01-05T07:06:46.180Z,29.27
2019-01-05T07:09:26.216Z,36.10
2019-01-05T07:11:55.194Z,31.83
2019-01-05T07:14:27.549Z,30.30
2019-01-05T07:16:44.570Z,34.30
2019-01-05T07:19:30.608Z,31.70
2019-01-05T07:21:58.567Z,29.90
2019-01-05T07:24:56.407Z,24.43
2019-01-05T07:27:27.327Z,29.53
2019-01-05T07:30:07.473Z,30.23
2019-01-05T07:32:35.093Z,22.87
2019-01-05T07:35:21.237Z,28.53
2019-01-05T07:38:04.051Z,26.17
2019-01-05T07:40:39.508Z,27.80
2019-01-05T07:43:05.943Z,25.50
2019-01-05T07:45:35.210Z,26.90
2019-01-05T07:48:27.293Z,24.87
2019-01-05T07:51:07.693Z,26.10
2019-01-05T07:53:27.577Z,20.93
2019-01-05T07:56:27.400Z,21.80
2019-01-05T07:58:53.581Z,21.73
2019-01-05T08:01:41.250Z,25.63
2019-01-05T08:04:23.772Z,24.33
2019-01-05T08:06:56.175Z,26.90
2019-01-05T08:09:25.930Z,23.77
2019-01-05T08:11:53.226Z,29.30
2019-01-05T08:14:41.984Z,28.60
2019-01-05T08:17:19.073Z,22.50
2019-01-05T08:20:04.702Z,27.87
2019-01-05T08:22:31.879Z,27.77
2019-01-05T08:25:12.810Z,22.40
2019-01-05T08:27:33.282Z,21.87
2019-01-05T08:30:17.521Z,17.10
2019-01-05T08:32:49.911Z,21.20
2019-01-05T08:35:34.219Z,24.37
2019-01-05T08:37:58.991Z,23.10
2019-01-05T08:40:44.992Z,26.30
2019-01-05T08:43:18.763Z,24.90
2019-01-05T08:46:16.687Z,23.90
2019-01-05T08:48:34.213Z,29.73
2019-01-05T08:51:21.906Z,30.37
2019-01-05T08:54:05.308Z,26.53
2019-01-05T08:56:35.605Z,27.90
2019-01-05T08:59:01.357Z,32.50
2019-01-05T09:01:49.156Z,31.57
2019-01-05T09:04:26.248Z,34.23
2019-01-05T09:06:55.663Z,31.90
2019-01-05T09:09:38.533Z,34.93
2019-01-05T09:12:13.825Z,33.27
2019-01-05T09:14:41.626Z,35.53
2019-01-05T09:17:33.374Z,39.57
2019-01-05T09:19:59.952Z,35.93
2019-01-05T09:22:34.003Z,37.03
2019-01-05T09:25:12.467Z,36.27
2019-01-05T09:27:32.664Z,37.10
2019-01-05T09:30:18.445Z,39.87
2019-01-05T09:32:29.385Z,39.37
2019-01-05T09:34:46.632Z,40.83
2019-01-05T09:37:16.995Z,38.87
2019-01-05T09:39:54.039Z,47.23
2019-01-05T09:42:25.104Z,42.67
2019-01-05T09:45:17.523Z,37.50
2019-01-05T09:48:00.382Z,41.23
2019-01-05T09:50:34.168Z,55.13
2019-01-05T09:53:23.234Z,48.27
2019-01-05T09:55:50.865Z,52.00
2019-01-05T09:58:16.934Z,53.13
2019-01-05T10:01:07.490Z,53.27
2019-01-05T10:04:05.899Z,49.67
2019-01-05T10:06:30.449Z,49.97
2019-01-05T10:08:56.872Z,43.17
2019-01-05T10:11:19.897Z,43.00
2019-01-05T10:13:52.133Z,43.30
2019-01-05T10:16:38.385Z,47.20
2019-01-05T10:18:58.545Z,50.33
2019-01-05T10:21:38.914Z,53.90
2019-01-05T10:23:49.810Z,53.27
2019-01-05T10:26:32.434Z,58.63
2019-01-05T10:28:49.650Z,53.03
2019-01-05T10:31:00.700Z,54.70
2019-01-05T10:33:32.942Z,48.13
2019-01-05T10:36:16.039Z,60.87
2019-01-05T10:38:38.867Z,61.13
2019-01-05T10:41:02.791Z,53.43
2019-01-05T10:43:37.121Z,55.50
2019-01-05T10:45:51.257Z,60.90
2019-01-05T10:48:11.451Z,62.53
2019-01-05T10:50:51.540Z,64.80
2019-01-05T10:53:14.842Z,55.23
2019-01-05T10:55:57.806Z,63.57
2019-01-05T10:58:42.369Z,58.60
2019-01-05T11:01:40.426Z,62.40
2019-01-05T11:04:17.324Z,59.83
2019-01-05T11:06:51.045Z,63.13
2019-01-05T11:09:38.815Z,56.83
2019-01-05T11:12:12.557Z,63.53
2019-01-05T11:14:38.050Z,47.10
2019-01-05T11:17:10.660Z,63.83
2019-01-05T11:19:30.991Z,58.60
2019-01-05T11:21:51.196Z,63.30
2019-01-05T11:24:43.561Z,60.50
2019-01-05T11:26:54.499Z,64.33
2019-01-05T11:29:49.232Z,48.67
2019-01-05T11:32:03.044Z,53.93
2019-01-05T11:34:42.607Z,52.90
2019-01-05T11:37:08.746Z,49.63
2019-01-05T11:39:36.861Z,58.93
2019-01-05T11:42:12.081Z,57.60
2019-01-05T11:44:42.851Z,44.63
2019-01-05T11:47:15.506Z,46.27
2019-01-05T11:49:38.569Z,46.63
2019-01-05T11:52:18.714Z,44.07
2019-01-05T11:55:00.087Z,38.33
2019-01-05T11:57:33.994Z,49.37
2019-01-05T11:59:51.560Z,43.30
2019-01-05T12:02:27.179Z,41.07
2019-01-05T12:05:04.344Z,43.50
2019-01-05T12:07:40.611Z,40.53
2019-01-05T12:10:14.669Z,41.53
2019-01-05T12:13:01.964Z,44.30
2019-01-05T12:15:48.177Z,45.30
2019-01-05T12:18:35.807Z,44.97
2019-01-05T12:21:08.084Z,38.00
2019-01-05T12:23:34.187Z,44.67
2019-01-05T12:25:51.304Z,39.63
2019-01-05T12:28:32.796Z,37.97
2019-01-05T12:30:55.912Z,44.20
2019-01-05T12:33:48.164Z,43.23
2019-01-05T12:36:29.775Z,44.57
2019-01-05T12:39:07.232Z,39.73
2019-01-05T12:41:27.727Z,31.27
2019-01-05T12:44:09.763Z,35.73
2019-01-05T12:46:40.583Z,38.73
2019-01-05T12:49:24.848Z,35.63
2019-01-05T12:52:14.118Z,28.10
2019-01-05T12:54:44.849Z,30.77
2019-01-05T12:57:11.003Z,32.20
2019-01-05T12:59:34.359Z,33.97
2019-01-05T13:01:45.406Z,30.40
2019-01-05T13:04:31.575Z,28.53
2019-01-05T13:06:54.933Z,31.77
2019-01-05T13:09:40.681Z,32.07
2019-01-05T13:12:11.040Z,29.30
2019-01-05T13:14:50.872Z,26.47
2019-01-05T13:17:12.983Z,30.27
2019-01-05T13:19:43.368Z,28.33
2019-01-05T13:22:32.241Z,25.97
2019-01-05T13:25:17.883Z,23.90
2019-01-05T13:27:54.720Z,24.63
2019-01-05T13:30:54.355Z,20.70
2019-01-05T13:33:48.254Z,24.30
2019-01-05T13:36:17.602Z,27.00
2019-01-05T13:38:51.225Z,20.20
2019-01-05T13:41:18.829Z,23.53
2019-01-05T13:43:57.291Z,19.23
2019-01-05T13:46:31.209Z,19.50
2019-01-05T13:49:11.869Z,20.73
2019-01-05T13:51:37.931Z,17.07
2019-01-05T13:53:50.637Z,15.60
2019-01-05T13:56:01.468Z,21.37
2019-01-05T13:58:18.880Z,20.70
2019-01-05T14:00:42.344Z,17.90
2019-01-05T14:02:48.326Z,14.27
2019-01-05T14:05:10.044Z,13.53
2019-01-05T14:07:21.201Z,16.40
2019-01-05T14:09:41.627Z,13.67
2019-01-05T14:11:52.941Z,16.60
2019-01-05T14:14:14.515Z,10.07
2019-01-05T14:16:37.772Z,11.83
2019-01-05T14:19:01.988Z,15.80
2019-01-05T14:21:23.473Z,10.30
2019-01-05T14:23:46.793Z,10.07
2019-01-05T14:26:08.863Z,11.00
2019-01-05T14:28:14.149Z,10.43
2019-01-05T14:30:22.386Z,9.43
2019-01-05T14:32:39.905Z,11.70
2019-01-05T14:35:00.706Z,15.00
2019-01-05T14:37:14.702Z,13.67
2019-01-05T14:39:25.930Z,12.63
2019-01-05T14:41:31.262Z,8.83
2019-01-05T14:43:42.066Z,11.33
2019-01-05T14:46:02.389Z,14.80
2019-01-05T14:48:10.457Z,9.83
2019-01-05T14:50:24.709Z,13.00
2019-01-05T14:52:30.090Z,12.60
2019-01-05T14:54:41.110Z,9.80
2019-01-05T14:57:02.938Z,13.50
2019-01-05T14:59:24.766Z,8.70
2019-01-05T15:01:33.176Z,8.47
2019-01-05T15:03:55.218Z,10.80
2019-01-05T15:06:18.801Z,8.37
2019-01-05T15:08:39.453Z,10.97
2019-01-05T15:10:44.875Z,12.37
2019-01-05T15:12:59.351Z,10.83
2019-01-05T15:15:21.381Z,8.23
2019-01-05T15:17:43.200Z,10.13
2019-01-05T15:19:48.726Z,8.50
2019-01-05T15:22:10.551Z,9.23
2019-01-05T15:24:21.450Z,15.60
2019-01-05T15:26:33.608Z,9.33
2019-01-05T15:28:42.156Z,15.30
2019-01-05T15:30:53.277Z,11.03
2019-01-05T15:33:21.689Z,8.20
2019-01-05T15:35:25.509Z,7.70
2019-01-05T15:37:39.825Z,8.30
2019-01-05T15:39:45.208Z,13.10
2019-01-05T15:42:05.531Z,13.13
2019-01-05T15:44:16.989Z,15.57
2019-01-05T15:46:31.168Z,15.67
2019-01-05T15:48:53.674Z,13.43
2019-01-05T15:51:18.441Z,9.33
2019-01-05T15:53:36.024Z,9.87
2019-01-05T15:55:56.568Z,11.83
2019-01-05T15:58:04.655Z,11.37
2019-01-05T16:00:26.365Z,28.87
2019-01-05T16:02:37.765Z,30.10
2019-01-05T16:04:45.914Z,17.70
2019-01-05T16:07:09.907Z,23.83
2019-01-05T16:09:31.489Z,12.33
2019-01-05T16:11:45.505Z,10.93
2019-01-05T16:14:07.362Z,6.67
2019-01-05T16:16:26.611Z,5.53
2019-01-05T16:18:46.845Z,5.73
2019-01-05T16:21:08.648Z,4.63
2019-01-05T16:23:22.909Z,5.93
2019-01-05T16:25:28.221Z,5.10
2019-01-05T16:27:39.366Z,9.23
2019-01-05T16:30:01.173Z,11.23
2019-01-05T16:32:09.056Z,11.60
2019-01-05T16:34:14.316Z,10.87
2019-01-05T16:36:28.827Z,13.53
2019-01-05T16:38:37.128Z,12.77
2019-01-05T16:40:48.600Z,13.43
2019-01-05T16:42:56.910Z,11.03
2019-01-05T16:45:07.769Z,11.10
2019-01-05T16:47:29.119Z,17.13
2019-01-05T16:49:34.501Z,13.50
2019-01-05T16:51:56.016Z,14.90
2019-01-05T16:54:07.277Z,11.70
2019-01-05T16:56:12.570Z,12.77
2019-01-05T16:58:17.874Z,13.17
2019-01-05T17:00:28.853Z,13.73
2019-01-05T17:02:46.448Z,13.23
2019-01-05T17:05:01.337Z,15.77
2019-01-05T17:07:22.962Z,19.83
2019-01-05T17:09:37.044Z,9.90
2019-01-05T17:11:58.740Z,8.03
2019-01-05T17:14:12.966Z,11.30
2019-01-05T17:16:30.409Z,4.33
2019-01-05T17:18:35.823Z,4.67
2019-01-05T17:20:41.074Z,7.97
2019-01-05T17:22:46.460Z,5.40
2019-01-05T17:24:57.315Z,5.43
2019-01-05T17:27:19.123Z,9.73
2019-01-05T17:29:30.558Z,8.10
2019-01-05T17:31:35.885Z,7.73
2019-01-05T17:33:43.649Z,6.80
2019-01-05T17:35:48.866Z,7.03
2019-01-05T17:38:06.466Z,23.70
2019-01-05T17:40:11.717Z,11.70
2019-01-05T17:42:25.633Z,12.97
2019-01-05T17:44:40.166Z,5.93
2019-01-05T17:46:45.489Z,4.93
2019-01-05T17:49:08.719Z,5.23
2019-01-05T17:51:17.004Z,5.90
2019-01-05T17:53:37.613Z,9.40
2019-01-05T17:55:49.024Z,8.47
2019-01-05T17:57:59.786Z,4.70
2019-01-05T18:00:08.741Z,4.93
2019-01-05T18:02:32.718Z,7.20
2019-01-05T18:04:38.140Z,5.57
2019-01-05T18:06:59.565Z,9.33
2019-01-05T18:09:13.523Z,7.97
2019-01-05T18:11:18.820Z,5.33
2019-01-05T18:13:26.840Z,5.20
2019-01-05T18:15:32.167Z,7.53
2019-01-05T18:17:55.822Z,6.43
2019-01-05T18:20:13.111Z,6.60
2019-01-05T18:22:36.555Z,4.37
2019-01-05T18:24:44.902Z,7.80
2019-01-05T18:26:50.213Z,6.03
2019-01-05T18:29:11.529Z,5.00
2019-01-05T18:31:33.035Z,8.30
2019-01-05T18:33:38.350Z,9.63
2019-01-05T18:36:01.857Z,10.47
2019-01-05T18:38:19.105Z,9.13
2019-01-05T18:40:33.409Z,7.13
2019-01-05T18:42:54.856Z,3.83
2019-01-05T18:45:16.736Z,5.77
2019-01-05T18:47:30.858Z,4.70
2019-01-05T18:49:45.214Z,7.57
2019-01-05T18:52:06.753Z,4.43
2019-01-05T18:54:24.383Z,5.30
2019-01-05T18:56:29.701Z,5.87
2019-01-05T18:58:51.422Z,4.50
2019-01-05T19:00:56.784Z,3.63
2019-01-05T19:03:02.091Z,4.20
2019-01-05T19:05:10.734Z,4.97
2019-01-05T19:07:32.003Z,10.73
2019-01-05T19:09:46.685Z,7.27
2019-01-05T19:12:08.716Z,6.20
2019-01-05T19:14:30.475Z,4.60
2019-01-05T19:16:52.275Z,6.23
2019-01-05T19:18:57.579Z,7.40
2019-01-05T19:21:03.014Z,8.00
2019-01-05T19:23:08.419Z,6.57
2019-01-05T19:25:16.660Z,8.10
2019-01-05T19:27:37.994Z,7.70
2019-01-05T19:29:43.213Z,7.37
2019-01-05T19:31:54.452Z,5.63
2019-01-05T19:34:15.977Z,6.47
2019-01-05T19:36:27.486Z,12.07
2019-01-05T19:38:48.531Z,8.50
2019-01-05T19:41:03.058Z,6.27
2019-01-05T19:43:08.441Z,6.30
2019-01-05T19:45:29.786Z,6.13
2019-01-05T19:47:51.748Z,9.90
2019-01-05T19:50:13.288Z,5.40
2019-01-05T19:52:18.712Z,6.63
2019-01-05T19:54:23.959Z,7.13
2019-01-05T19:56:45.852Z,8.00
2019-01-05T19:58:54.259Z,9.57
2019-01-05T20:00:59.580Z,46.20
2019-01-05T20:03:16.972Z,99.90
2019-01-05T20:05:39.070Z,37.83
2019-01-05T20:08:01.232Z,42.00
2019-01-05T20:10:26.231Z,21.77
2019-01-05T20:12:34.714Z,25.77
2019-01-05T20:14:45.961Z,9.23
2019-01-05T20:16:54.786Z,7.13
2019-01-05T20:19:02.924Z,7.80
2019-01-05T20:21:20.121Z,8.33
2019-01-05T20:23:40.571Z,8.23
2019-01-05T20:25:57.740Z,10.67
2019-01-05T20:28:06.115Z,6.30
2019-01-05T20:30:11.853Z,4.87
2019-01-05T20:32:32.553Z,5.53
2019-01-05T20:34:56.156Z,7.70
2019-01-05T20:37:17.815Z,8.63
2019-01-05T20:39:23.195Z,18.73
2019-01-05T20:41:45.109Z,8.40
2019-01-05T20:44:02.698Z,7.93
2019-01-05T20:46:08.021Z,10.33
2019-01-05T20:48:13.410Z,25.50
2019-01-05T20:50:30.827Z,17.63
2019-01-05T20:52:48.049Z,10.43
2019-01-05T20:55:02.703Z,7.63
2019-01-05T20:57:18.604Z,6.83
2019-01-05T20:59:40.810Z,14.57
2019-01-05T21:02:02.882Z,68.87
2019-01-05T21:04:24.175Z,12.47
2019-01-05T21:06:35.510Z,9.50
2019-01-05T21:08:40.981Z,9.70
2019-01-05T21:11:04.165Z,4.30
2019-01-05T21:13:24.269Z,5.20
2019-01-05T21:15:41.344Z,9.20
2019-01-05T21:17:58.928Z,12.23
2019-01-05T21:20:16.491Z,18.33
2019-01-05T21:22:21.852Z,6.50
2019-01-05T21:24:43.671Z,9.07
2019-01-05T21:26:57.647Z,6.37
2019-01-05T21:29:08.769Z,5.27
2019-01-05T21:31:19.573Z,7.20
2019-01-05T21:33:41.067Z,4.30
2019-01-05T21:36:02.768Z,7.17
2019-01-05T21:38:20.123Z,4.47
2019-01-05T21:40:34.774Z,5.87
2019-01-05T21:42:40.025Z,4.07
2019-01-05T21:44:48.298Z,4.40
2019-01-05T21:46:53.616Z,5.33
2019-01-05T21:49:17.113Z,4.10
2019-01-05T21:51:39.049Z,7.10
2019-01-05T21:53:47.608Z,8.60
2019-01-05T21:55:52.928Z,6.63
2019-01-05T21:58:00.660Z,4.63
2019-01-05T22:00:12.126Z,4.83
2019-01-05T22:02:17.397Z,7.13
2019-01-05T22:04:25.824Z,4.10
2019-01-05T22:06:36.743Z,4.83
2019-01-05T22:08:42.035Z,3.63
2019-01-05T22:10:50.060Z,4.53
2019-01-05T22:12:55.370Z,3.60
2019-01-05T22:15:00.702Z,4.77
2019-01-05T22:17:24.146Z,5.37
2019-01-05T22:19:45.945Z,5.10
2019-01-05T22:22:09.809Z,5.70
2019-01-05T22:24:21.200Z,5.60
2019-01-05T22:26:26.515Z,5.30
2019-01-05T22:28:31.809Z,9.63
2019-01-05T22:30:53.662Z,4.70
2019-01-05T22:33:14.240Z,7.03
2019-01-05T22:35:22.062Z,6.63
2019-01-05T22:37:30.390Z,6.50
2019-01-05T22:39:51.920Z,15.67
2019-01-05T22:41:57.239Z,13.97
2019-01-05T22:44:05.092Z,5.80
2019-01-05T22:46:19.383Z,10.03
2019-01-05T22:48:27.232Z,8.73
2019-01-05T22:50:50.499Z,9.60
2019-01-05T22:53:05.645Z,8.50
2019-01-05T22:55:23.677Z,16.10
2019-01-05T22:57:32.155Z,11.00
2019-01-05T22:59:53.813Z,21.40
2019-01-05T23:02:02.290Z,16.83
2019-01-05T23:04:16.313Z,36.33
2019-01-05T23:06:22.368Z,20.40
2019-01-05T23:08:44.279Z,20.33
2019-01-05T23:10:49.700Z,9.33
2019-01-05T23:13:11.401Z,10.73
2019-01-05T23:15:31.896Z,10.30
2019-01-05T23:17:49.197Z,12.07
2019-01-05T23:20:10.619Z,43.13
2019-01-05T23:22:19.252Z,15.47
2019-01-05T23:24:30.310Z,8.40
2019-01-05T23:26:41.750Z,8.93
2019-01-05T23:28:47.072Z,8.43
2019-01-05T23:30:52.497Z,7.93
2019-01-05T23:33:00.730Z,9.10
2019-01-05T23:35:22.922Z,5.73
2019-01-05T23:37:44.423Z,5.80
2019-01-05T23:39:52.218Z,4.43
2019-01-05T23:42:13.772Z,5.47
2019-01-05T23:44:20.544Z,11.83
2019-01-05T23:46:32.110Z,6.10
2019-01-05T23:48:53.971Z,4.70
2019-01-05T23:51:14.606Z,6.00
2019-01-05T23:53:36.193Z,5.03
2019-01-05T23:55:57.726Z,4.13
2019-01-05T23:58:44.299Z,4.70
